TimeCDT,TemperatureF,Dew PointF,Humidity,Sea Level PressureIn,VisibilityMPH,Wind Direction,Wind SpeedMPH,Gust SpeedMPH,PrecipitationIn,Events,Conditions,WindDirDegrees,DateUTC
12:14 AM,19.4,17.6,93,30.30,10.0,Calm,Calm,-,N/A,,Clear,0,2013-03-27 05:14:00
12:34 AM,19.4,17.6,93,30.30,10.0,Calm,Calm,-,N/A,,Clear,0,2013-03-27 05:34:00
12:54 AM,19.4,19.4,100,30.30,10.0,Calm,Calm,-,N/A,,Clear,0,2013-03-27 05:54:00
1:14 AM,19.4,19.4,100,30.31,10.0,Calm,Calm,-,N/A,,Clear,0,2013-03-27 06:14:00
1:34 AM,19.4,19.4,100,30.31,10.0,Calm,Calm,-,N/A,,Clear,0,2013-03-27 06:34:00
1:54 AM,17.6,17.6,100,30.31,10.0,Calm,Calm,-,N/A,,Clear,0,2013-03-27 06:54:00
2:14 AM,17.6,17.6,100,30.31,10.0,Calm,Calm,-,N/A,,Clear,0,2013-03-27 07:14:00
2:34 AM,15.8,15.8,100,30.30,10.0,Calm,Calm,-,N/A,,Clear,0,2013-03-27 07:34:00
2:54 AM,15.8,15.8,100,30.30,10.0,Calm,Calm,-,N/A,,Clear,0,2013-03-27 07:54:00
3:14 AM,17.6,17.6,100,30.30,5.0,Calm,Calm,-,N/A,,Clear,0,2013-03-27 08:14:00
3:34 AM,15.8,15.8,100,30.30,7.0,Calm,Calm,-,N/A,,Clear,0,2013-03-27 08:34:00
3:54 AM,15.8,15.8,100,30.30,7.0,Calm,Calm,-,N/A,,Clear,0,2013-03-27 08:54:00
4:14 AM,15.8,15.8,100,30.30,4.0,Calm,Calm,-,N/A,,Clear,0,2013-03-27 09:14:00
4:34 AM,15.8,15.8,100,30.30,7.0,Calm,Calm,-,N/A,,Clear,0,2013-03-27 09:34:00
4:54 AM,17.6,15.8,93,30.30,7.0,Calm,Calm,-,N/A,,Clear,0,2013-03-27 09:54:00
5:14 AM,15.8,14.0,93,30.30,10.0,Calm,Calm,-,N/A,,Clear,0,2013-03-27 10:14:00
5:34 AM,15.8,15.8,100,30.31,7.0,Calm,Calm,-,N/A,,Scattered Clouds,0,2013-03-27 10:34:00
5:54 AM,14.0,14.0,100,30.31,3.0,Calm,Calm,-,N/A,,Scattered Clouds,0,2013-03-27 10:54:00
6:14 AM,15.8,14.0,93,30.31,0.2,Calm,Calm,-,N/A,Fog,Light Freezing Fog,0,2013-03-27 11:14:00
6:34 AM,15.8,14.0,93,30.31,0.5,Calm,Calm,-,N/A,Fog,Light Freezing Fog,0,2013-03-27 11:34:00
6:54 AM,15.8,15.8,100,30.31,0.5,Calm,Calm,-,N/A,Fog,Light Freezing Fog,0,2013-03-27 11:54:00
7:14 AM,14.0,12.2,93,30.31,4.0,Calm,Calm,-,N/A,,Clear,0,2013-03-27 12:14:00
7:33 AM,12.2,12.2,100,30.32,2.5,Calm,Calm,-,N/A,,Clear,0,2013-03-27 12:33:00
7:54 AM,15.8,14.0,93,30.32,5.0,Calm,Calm,-,N/A,,Clear,0,2013-03-27 12:54:00
8:14 AM,15.8,15.8,100,30.32,5.0,Calm,Calm,-,N/A,,Clear,0,2013-03-27 13:14:00
8:33 AM,19.4,19.4,100,30.32,5.0,Calm,Calm,-,N/A,,Clear,0,2013-03-27 13:33:00
8:54 AM,21.2,21.2,100,30.32,5.0,Calm,Calm,-,N/A,,Clear,0,2013-03-27 13:54:00
9:14 AM,24.8,24.8,100,30.32,7.0,Calm,Calm,-,N/A,,Clear,0,2013-03-27 14:14:00
9:33 AM,24.8,24.8,100,30.32,7.0,Calm,Calm,-,N/A,,Clear,0,2013-03-27 14:33:00
9:54 AM,28.4,24.8,86,30.32,10.0,Calm,Calm,-,N/A,,Clear,0,2013-03-27 14:54:00
10:14 AM,30.2,23.0,75,30.33,10.0,Calm,Calm,-,N/A,,Clear,0,2013-03-27 15:14:00
10:34 AM,32.0,19.4,60,30.34,10.0,Calm,Calm,-,N/A,,Clear,0,2013-03-27 15:34:00
10:54 AM,33.8,17.6,52,30.34,10.0,Calm,Calm,-,N/A,,Clear,0,2013-03-27 15:54:00
11:14 AM,35.6,17.6,48,30.34,10.0,Calm,Calm,-,N/A,,Clear,0,2013-03-27 16:14:00
11:34 AM,35.6,19.4,52,30.35,10.0,WSW,3.5,-,N/A,,Clear,250,2013-03-27 16:34:00
11:54 AM,35.6,19.4,52,30.35,10.0,Calm,Calm,-,N/A,,Clear,0,2013-03-27 16:54:00
12:14 PM,35.6,19.4,52,30.34,10.0,Calm,Calm,-,N/A,,Clear,0,2013-03-27 17:14:00
12:34 PM,37.4,19.4,48,30.34,10.0,SSW,4.6,-,N/A,,Clear,200,2013-03-27 17:34:00
12:54 PM,37.4,19.4,48,30.34,10.0,SW,5.8,-,N/A,,Clear,220,2013-03-27 17:54:00
1:14 PM,37.4,17.6,45,30.34,10.0,SW,5.8,-,N/A,,Clear,220,2013-03-27 18:14:00
1:34 PM,37.4,19.4,48,30.34,10.0,SW,4.6,-,N/A,,Clear,220,2013-03-27 18:34:00
1:54 PM,37.4,19.4,48,30.33,10.0,SW,6.9,-,N/A,,Clear,220,2013-03-27 18:54:00
2:14 PM,37.4,19.4,48,30.33,10.0,SSW,5.8,-,N/A,,Clear,210,2013-03-27 19:14:00
2:34 PM,37.4,19.4,48,30.32,10.0,SW,5.8,-,N/A,,Scattered Clouds,230,2013-03-27 19:34:00
2:54 PM,37.4,21.2,52,30.32,10.0,SW,6.9,-,N/A,,Clear,220,2013-03-27 19:54:00
3:14 PM,37.4,21.2,52,30.32,10.0,SSW,5.8,-,N/A,,Clear,210,2013-03-27 20:14:00
3:34 PM,37.4,21.2,52,30.32,10.0,SW,4.6,-,N/A,,Clear,230,2013-03-27 20:34:00
3:54 PM,37.4,21.2,52,30.31,10.0,SSW,5.8,-,N/A,,Clear,210,2013-03-27 20:54:00
4:14 PM,37.4,21.2,52,30.31,10.0,SW,5.8,-,N/A,,Scattered Clouds,230,2013-03-27 21:14:00
4:34 PM,37.4,21.2,52,30.31,10.0,SSW,4.6,-,N/A,,Clear,210,2013-03-27 21:34:00
4:54 PM,37.4,23.0,56,30.31,10.0,WSW,3.5,-,N/A,,Clear,240,2013-03-27 21:54:00
5:14 PM,37.4,21.2,52,30.30,10.0,SW,3.5,-,N/A,,Clear,230,2013-03-27 22:14:00
5:34 PM,37.4,23.0,56,30.30,10.0,SW,4.6,-,N/A,,Clear,230,2013-03-27 22:34:00
5:54 PM,37.4,21.2,52,30.30,10.0,SE,4.6,-,N/A,,Clear,130,2013-03-27 22:54:00
6:14 PM,37.4,21.2,52,30.30,10.0,Calm,Calm,-,N/A,,Clear,0,2013-03-27 23:14:00
6:34 PM,37.4,21.2,52,30.30,10.0,South,3.5,-,N/A,,Clear,190,2013-03-27 23:34:00
6:54 PM,35.6,21.2,56,30.30,10.0,South,3.5,-,N/A,,Clear,180,2013-03-27 23:54:00
7:14 PM,35.6,19.4,52,30.30,10.0,Calm,Calm,-,N/A,,Clear,0,2013-03-28 00:14:00
7:34 PM,33.8,19.4,56,30.30,10.0,Calm,Calm,-,N/A,,Clear,0,2013-03-28 00:34:00
7:54 PM,33.8,19.4,56,30.30,10.0,Calm,Calm,-,N/A,,Clear,0,2013-03-28 00:54:00
8:14 PM,30.2,21.2,69,30.30,10.0,Calm,Calm,-,N/A,,Clear,0,2013-03-28 01:14:00
8:34 PM,28.4,21.2,74,30.30,10.0,Calm,Calm,-,N/A,,Clear,0,2013-03-28 01:34:00
8:53 PM,26.6,21.2,80,30.31,10.0,Calm,Calm,-,N/A,,Clear,0,2013-03-28 01:53:00
9:14 PM,26.6,21.2,80,30.32,10.0,Calm,Calm,-,N/A,,Clear,0,2013-03-28 02:14:00
9:34 PM,26.6,21.2,80,30.32,10.0,Calm,Calm,-,N/A,,Clear,0,2013-03-28 02:34:00
9:54 PM,24.8,21.2,86,30.33,10.0,Calm,Calm,-,N/A,,Clear,0,2013-03-28 02:54:00
10:14 PM,24.8,21.2,86,30.33,10.0,Calm,Calm,-,N/A,,Clear,0,2013-03-28 03:14:00
10:34 PM,24.8,21.2,86,30.33,10.0,Calm,Calm,-,N/A,,Clear,0,2013-03-28 03:34:00
10:53 PM,24.8,21.2,86,30.33,10.0,Calm,Calm,-,N/A,,Clear,0,2013-03-28 03:53:00
11:14 PM,21.2,21.2,100,30.33,10.0,Calm,Calm,-,N/A,,Clear,0,2013-03-28 04:14:00
11:34 PM,24.8,21.2,86,30.33,10.0,Calm,Calm,-,N/A,,Clear,0,2013-03-28 04:34:00
11:53 PM,21.2,21.2,100,30.33,10.0,Calm,Calm,-,N/A,,Clear,0,2013-03-28 04:53:00